This is the latest recevied weather packets stored in our database for station/object AC4AG. If no packets are shown the sender has not sent any weather packets the latest 10 day(s).
| Time | Temp. | Humidity | Pressure | Rain* | Wind** | Luminosity | Snow |
|---|---|---|---|---|---|---|---|
| 1777219273 | 17.22° C | 81% | 1015.7 hPa | 0 mm | - | 378 W/m² | - |
| 1777218969 | 17.78° C | 80% | 1015.8 hPa | 0 mm | - | 1041 W/m² | - |
| 1777218664 | 17.22° C | 82% | 1015.8 hPa | 0 mm | - | 1004 W/m² | - |
| 1777218360 | 17.22° C | 82% | 1015.9 hPa | 0 mm | - | 514 W/m² | - |
| 1777218057 | 17.22° C | 82% | 1015.9 hPa | 0 mm | - | 800 W/m² | - |
| 1777217751 | 16.11° C | 85% | 1015.9 hPa | 0 mm | - | 606 W/m² | - |
| 1777217448 | 15.56° C | 86% | 1015.7 hPa | 0 mm | - | 1013 W/m² | - |
| 1777217144 | 16.11° C | 84% | 1015.7 hPa | 0 mm | - | 395 W/m² | - |
| 1777216841 | 16.11° C | 86% | 1015.5 hPa | 0 mm | - | 469 W/m² | - |
| 1777216538 | 16.11° C | 86% | 1015.7 hPa | 0 mm | - | 853 W/m² | - |
| 1777216234 | 15.56° C | 89% | 1015.7 hPa | 0 mm | - | 682 W/m² | - |
| 1777215931 | 15.56° C | 88% | 1015.7 hPa | 0 mm | - | 579 W/m² | - |
| 1777215628 | 15.56° C | 86% | 1015.6 hPa | 0 mm | - | 544 W/m² | - |
| 1777215323 | 15.56° C | 89% | 1015.5 hPa | 0 mm | - | 618 W/m² | - |
| 1777215020 | 14.44° C | 92% | 1015.6 hPa | 0 mm | - | 603 W/m² | - |
| 1777214719 | 14.44° C | 93% | 1015.7 hPa | 0 mm | - | 421 W/m² | - |
| 1777214420 | 14.44° C | 92% | 1015.5 hPa | 0 mm | - | 375 W/m² | - |
| 1777214114 | 13.89° C | 94% | 1015.4 hPa | 0 mm | - | 376 W/m² | - |
| 1777213809 | 13.89° C | 94% | 1015.6 hPa | 0 mm | - | 252 W/m² | - |
| 1777213504 | 13.33° C | 96% | 1015.4 hPa | 0 mm | - | 255 W/m² | - |
| 1777213202 | 13.33° C | 96% | 1015.5 hPa | 0 mm | - | 247 W/m² | - |
| 1777212898 | 12.78° C | 97% | 1015.3 hPa | 0 mm | - | 232 W/m² | - |
| 1777212596 | 12.78° C | 98% | 1015.4 hPa | 0 mm | - | 190 W/m² | - |
| 1777212293 | 12.78° C | 98% | 1015.2 hPa | 0 mm | - | 171 W/m² | - |
| 1777211989 | 12.78° C | 98% | 1015.4 hPa | 0 mm | - | 181 W/m² | - |
* Rain latest hour (hover to see other rain measurements)
** Current wind speed in m/s (hover to see current wind gust speed)